createdAt,value
2023-05-10T00:00:16.226Z,95.66
2023-05-10T00:01:16.008Z,97.38
2023-05-10T00:02:16.077Z,100.45
2023-05-10T00:03:16.115Z,100.92
2023-05-10T00:04:16.061Z,101.54
2023-05-10T00:05:16.055Z,104.30
2023-05-10T00:06:16.039Z,102.33
2023-05-10T00:07:16.024Z,101.99
2023-05-10T00:08:16.077Z,103.02
2023-05-10T00:09:16.065Z,104.29
2023-05-10T00:10:16.426Z,107.87
2023-05-10T00:11:16.074Z,106.23
2023-05-10T00:12:16.038Z,108.28
2023-05-10T00:13:16.092Z,106.25
2023-05-10T00:14:16.038Z,110.22
2023-05-10T00:15:16.038Z,106.58
2023-05-10T00:16:16.062Z,106.95
2023-05-10T00:17:16.060Z,105.81
2023-05-10T00:18:16.063Z,106.09
2023-05-10T00:19:16.072Z,106.39
2023-05-10T00:20:16.325Z,108.61
2023-05-10T00:21:16.072Z,110.84
2023-05-10T00:22:16.075Z,110.99
2023-05-10T00:23:16.093Z,109.98
2023-05-10T00:24:16.071Z,108.33
2023-05-10T00:25:16.081Z,111.69
2023-05-10T00:26:16.069Z,110.68
2023-05-10T00:27:16.060Z,111.84
2023-05-10T00:28:16.058Z,114.10
2023-05-10T00:29:16.063Z,109.16
2023-05-10T00:30:16.354Z,111.98
2023-05-10T00:31:16.058Z,111.83
2023-05-10T00:32:16.089Z,114.77
2023-05-10T00:33:16.085Z,112.76
2023-05-10T00:34:16.048Z,111.75
2023-05-10T00:35:16.069Z,113.67
2023-05-10T00:36:16.043Z,111.64
2023-05-10T00:37:16.065Z,110.01
2023-05-10T00:38:16.068Z,114.17
2023-05-10T00:39:16.033Z,114.45
2023-05-10T00:40:16.224Z,113.09
2023-05-10T00:41:16.057Z,113.83
2023-05-10T00:42:16.019Z,115.25
2023-05-10T00:43:16.048Z,115.71
2023-05-10T00:44:16.047Z,114.64
2023-05-10T00:45:16.055Z,110.78
2023-05-10T00:46:16.119Z,106.36
2023-05-10T00:47:16.016Z,102.74
2023-05-10T00:48:16.026Z,100.12
2023-05-10T00:49:15.999Z,100.02
2023-05-10T00:50:16.312Z,94.35
2023-05-10T00:51:16.019Z,95.46
2023-05-10T00:52:16.034Z,91.98
2023-05-10T00:53:16.026Z,95.21
2023-05-10T00:54:16.015Z,97.37
2023-05-10T00:55:15.992Z,98.66
2023-05-10T00:56:16.046Z,97.07
2023-05-10T00:57:16.012Z,101.52
2023-05-10T00:58:16.023Z,99.44
2023-05-10T00:59:16.025Z,99.58
2023-05-10T01:00:16.310Z,107.14
2023-05-10T01:01:16.036Z,113.34
2023-05-10T01:02:16.128Z,113.23
2023-05-10T01:03:16.145Z,110.88
2023-05-10T01:04:16.004Z,103.86
2023-05-10T01:05:16.124Z,100.81
2023-05-10T01:06:15.998Z,100.52
2023-05-10T01:07:16.040Z,100.10
2023-05-10T01:08:16.037Z,97.11
2023-05-10T01:09:16.012Z,102.87
2023-05-10T01:10:16.512Z,103.57
2023-05-10T01:11:16.007Z,104.13
2023-05-10T01:12:16.057Z,105.74
2023-05-10T01:13:16.109Z,108.21
2023-05-10T01:14:16.014Z,110.57
2023-05-10T01:15:16.042Z,107.95
2023-05-10T01:16:16.090Z,113.60
2023-05-10T01:17:16.049Z,115.77
2023-05-10T01:18:16.033Z,113.92
2023-05-10T01:19:16.039Z,113.71
2023-05-10T01:20:16.264Z,113.79
2023-05-10T01:21:16.086Z,112.33
2023-05-10T01:22:16.069Z,116.02
2023-05-10T01:23:16.154Z,122.35
2023-05-10T01:24:16.142Z,128.96
2023-05-10T01:25:16.183Z,132.33
2023-05-10T01:26:16.232Z,140.61
2023-05-10T01:27:16.335Z,149.26
2023-05-10T01:28:16.372Z,150.19
2023-05-10T01:29:16.416Z,153.31
2023-05-10T01:30:16.486Z,157.01
2023-05-10T01:31:16.525Z,157.65
2023-05-10T01:32:16.605Z,162.13
2023-05-10T01:33:16.661Z,163.42
2023-05-10T01:34:16.679Z,169.88
2023-05-10T01:35:16.779Z,171.17
2023-05-10T01:36:16.816Z,171.91
2023-05-10T01:37:16.874Z,174.43
2023-05-10T01:38:16.921Z,177.21
2023-05-10T01:39:17.022Z,178.25
2023-05-10T01:40:17.185Z,176.06
2023-05-10T01:41:17.131Z,179.73
2023-05-10T01:42:17.197Z,181.97
2023-05-10T01:43:17.252Z,184.96
2023-05-10T01:44:17.335Z,184.29
2023-05-10T01:45:17.332Z,185.43
2023-05-10T01:46:17.428Z,183.67
2023-05-10T01:47:17.478Z,187.83
2023-05-10T01:48:17.503Z,179.66
2023-05-10T01:49:17.566Z,179.84
2023-05-10T01:50:17.799Z,181.55
2023-05-10T01:51:17.713Z,180.67
2023-05-10T01:52:17.747Z,181.35
2023-05-10T01:53:17.832Z,182.88
2023-05-10T01:54:17.894Z,182.06
2023-05-10T01:55:17.937Z,172.17
2023-05-10T01:56:18.002Z,174.26
2023-05-10T01:57:18.054Z,176.57
2023-05-10T01:58:18.088Z,185.39
2023-05-10T01:59:18.170Z,178.61
2023-05-10T02:00:18.337Z,176.15
2023-05-10T02:01:18.350Z,179.57
2023-05-10T02:02:18.336Z,178.17
2023-05-10T02:03:18.474Z,179.91
2023-05-10T02:04:18.431Z,171.57
2023-05-10T02:05:18.471Z,167.48
2023-05-10T02:06:18.538Z,170.61
2023-05-10T02:07:18.610Z,174.89
2023-05-10T02:08:18.661Z,175.36
2023-05-10T02:09:18.689Z,174.45
2023-05-10T02:10:18.927Z,179.16
2023-05-10T02:11:18.834Z,175.65
2023-05-10T02:12:18.846Z,171.53
2023-05-10T02:13:18.998Z,169.74
2023-05-10T02:14:18.984Z,170.81
2023-05-10T02:15:19.011Z,173.15
2023-05-10T02:16:19.111Z,168.28
2023-05-10T02:17:19.135Z,160.78
2023-05-10T02:18:19.196Z,146.35
2023-05-10T02:19:19.225Z,140.94
2023-05-10T02:20:19.558Z,138.31
2023-05-10T02:21:19.376Z,136.07
2023-05-10T02:22:19.425Z,127.22
2023-05-10T02:23:19.484Z,118.06
2023-05-10T02:24:19.516Z,115.80
2023-05-10T02:25:19.602Z,122.34
2023-05-10T02:26:19.659Z,123.01
2023-05-10T02:27:19.701Z,122.04
2023-05-10T02:28:19.799Z,126.38
2023-05-10T02:29:19.853Z,125.89
2023-05-10T02:30:19.945Z,121.78
2023-05-10T02:31:20.043Z,117.51
2023-05-10T02:32:20.059Z,114.19
2023-05-10T02:33:20.110Z,114.44
2023-05-10T02:34:20.154Z,111.95
2023-05-10T02:35:20.221Z,111.15
2023-05-10T02:36:20.295Z,109.87
2023-05-10T02:37:20.354Z,102.71
2023-05-10T02:38:20.414Z,96.55
2023-05-10T02:39:20.448Z,96.96
2023-05-10T02:40:20.530Z,93.78
2023-05-10T02:41:20.591Z,86.58
2023-05-10T02:42:20.679Z,80.79
2023-05-10T02:43:20.729Z,81.49
2023-05-10T02:44:20.805Z,78.11
2023-05-10T02:45:20.852Z,77.49
2023-05-10T02:46:20.920Z,78.01
2023-05-10T02:47:20.971Z,76.82
2023-05-10T02:48:21.046Z,79.28
2023-05-10T02:49:21.102Z,83.83
2023-05-10T02:50:21.154Z,80.82
2023-05-10T02:51:21.207Z,79.09
2023-05-10T02:52:21.243Z,75.55
2023-05-10T02:53:21.336Z,72.03
2023-05-10T02:54:21.393Z,74.41
2023-05-10T02:55:21.433Z,80.05
2023-05-10T02:56:21.475Z,74.54
2023-05-10T02:57:21.553Z,71.55
2023-05-10T02:58:21.602Z,72.43
2023-05-10T02:59:21.664Z,71.75
2023-05-10T03:00:21.717Z,71.97
2023-05-10T03:01:21.775Z,73.07
2023-05-10T03:02:21.845Z,76.86
2023-05-10T03:03:21.846Z,73.50
2023-05-10T03:04:21.928Z,72.16
2023-05-10T03:05:21.953Z,75.52
2023-05-10T03:06:22.030Z,79.13
2023-05-10T03:07:22.134Z,82.42
2023-05-10T03:08:22.128Z,87.27
2023-05-10T03:09:22.182Z,87.73
2023-05-10T03:10:22.267Z,88.44
2023-05-10T03:11:22.294Z,88.30
2023-05-10T03:12:22.378Z,87.92
2023-05-10T03:13:22.466Z,89.34
2023-05-10T03:14:22.503Z,89.28
2023-05-10T03:15:22.577Z,93.71
2023-05-10T03:16:22.713Z,92.30
2023-05-10T03:17:22.827Z,87.97
2023-05-10T03:18:22.799Z,89.07
2023-05-10T03:19:22.841Z,93.25
2023-05-10T03:20:22.884Z,98.28
2023-05-10T03:21:22.910Z,99.92
2023-05-10T03:22:22.981Z,102.15
2023-05-10T03:23:23.061Z,103.65
2023-05-10T03:24:23.087Z,104.66
2023-05-10T03:25:23.128Z,105.66
2023-05-10T03:26:23.192Z,105.46
2023-05-10T03:27:23.257Z,106.83
2023-05-10T03:28:23.298Z,108.47
2023-05-10T03:29:23.347Z,108.69
2023-05-10T03:30:23.398Z,110.21
2023-05-10T03:31:23.484Z,111.82
2023-05-10T03:32:23.554Z,115.15
2023-05-10T03:33:23.577Z,115.37
2023-05-10T03:34:23.576Z,114.37
2023-05-10T03:35:23.622Z,117.93
2023-05-10T03:36:23.678Z,118.29
2023-05-10T03:37:23.748Z,120.00
2023-05-10T03:38:23.802Z,118.35
2023-05-10T03:39:23.837Z,125.26
2023-05-10T03:40:23.896Z,124.40
2023-05-10T03:41:23.922Z,126.43
2023-05-10T03:42:24.013Z,129.22
2023-05-10T03:43:24.036Z,125.84
2023-05-10T03:44:24.070Z,121.27
2023-05-10T03:45:24.131Z,112.46
2023-05-10T03:46:24.190Z,105.44
2023-05-10T03:47:24.250Z,92.95
2023-05-10T03:48:24.296Z,88.46
2023-05-10T03:49:24.324Z,87.74
2023-05-10T03:50:24.395Z,81.53
2023-05-10T03:51:24.411Z,77.76
2023-05-10T03:52:24.508Z,76.60
2023-05-10T03:53:24.562Z,72.99
2023-05-10T03:54:24.606Z,70.24
2023-05-10T03:55:24.690Z,70.52
2023-05-10T03:56:24.716Z,70.56
2023-05-10T03:57:24.811Z,69.75
2023-05-10T03:58:24.870Z,68.20
2023-05-10T03:59:24.940Z,68.17
2023-05-10T04:00:25.032Z,65.12
2023-05-10T04:01:25.087Z,65.07
2023-05-10T04:02:25.220Z,62.74
2023-05-10T04:03:25.441Z,61.30
2023-05-10T04:04:25.288Z,59.53
2023-05-10T04:05:25.308Z,56.82
2023-05-10T04:06:25.418Z,55.35
2023-05-10T04:07:25.414Z,60.16
2023-05-10T04:08:25.472Z,61.60
2023-05-10T04:09:25.504Z,61.80
2023-05-10T04:10:25.577Z,60.42
2023-05-10T04:11:25.671Z,63.45
2023-05-10T04:12:25.733Z,66.42
2023-05-10T04:13:25.832Z,70.11
2023-05-10T04:14:25.841Z,68.33
2023-05-10T04:15:25.919Z,67.86
2023-05-10T04:16:25.977Z,65.46
2023-05-10T04:17:26.151Z,57.52
2023-05-10T04:18:26.083Z,56.51
2023-05-10T04:19:26.150Z,56.82
2023-05-10T04:20:26.198Z,56.50
2023-05-10T04:21:26.260Z,59.36
2023-05-10T04:22:26.335Z,60.86
2023-05-10T04:23:26.378Z,60.52
2023-05-10T04:24:26.472Z,59.67
2023-05-10T04:25:26.513Z,56.80
2023-05-10T04:26:26.570Z,57.26
2023-05-10T04:27:26.606Z,58.98
2023-05-10T04:28:26.655Z,59.71
2023-05-10T04:29:26.724Z,60.64
2023-05-10T04:30:26.751Z,64.91
2023-05-10T04:31:26.882Z,63.54
2023-05-10T04:32:26.913Z,62.50
2023-05-10T04:33:26.957Z,61.01
2023-05-10T04:34:26.998Z,62.65
2023-05-10T04:35:27.026Z,64.12
2023-05-10T04:36:27.167Z,64.68
2023-05-10T04:37:27.145Z,64.77
2023-05-10T04:38:27.203Z,62.97
2023-05-10T04:39:27.271Z,63.52
2023-05-10T04:40:27.309Z,63.36
2023-05-10T04:41:27.369Z,68.16
2023-05-10T04:42:27.469Z,68.18
2023-05-10T04:43:27.479Z,65.46
2023-05-10T04:44:27.513Z,67.63
2023-05-10T04:45:27.579Z,67.49
2023-05-10T04:46:27.690Z,66.63
2023-05-10T04:47:27.694Z,59.94
2023-05-10T04:48:27.731Z,61.79
2023-05-10T04:49:27.790Z,58.76
2023-05-10T04:50:27.847Z,61.90
2023-05-10T04:51:27.919Z,59.78
2023-05-10T04:52:27.943Z,56.82
2023-05-10T04:53:28.004Z,56.34
2023-05-10T04:54:28.068Z,58.00
2023-05-10T04:55:28.099Z,55.61
2023-05-10T04:56:28.148Z,56.24
2023-05-10T04:57:28.202Z,54.77
2023-05-10T04:58:28.271Z,50.68
2023-05-10T04:59:28.318Z,50.51
2023-05-10T05:00:28.370Z,53.67
2023-05-10T05:01:35.486Z,52.53
2023-05-10T05:02:28.507Z,52.59
2023-05-10T05:03:28.482Z,52.58
2023-05-10T05:04:28.411Z,47.46
2023-05-10T05:05:28.449Z,48.16
2023-05-10T05:06:28.438Z,46.33
2023-05-10T05:07:28.388Z,47.79
2023-05-10T05:08:28.360Z,49.03
2023-05-10T05:09:28.379Z,46.68
2023-05-10T05:10:28.371Z,43.93
2023-05-10T05:11:28.349Z,42.92
2023-05-10T05:12:28.346Z,43.46
2023-05-10T05:13:28.442Z,42.20
2023-05-10T05:14:28.350Z,41.73
2023-05-10T05:15:28.320Z,42.04
2023-05-10T05:16:28.319Z,43.72
2023-05-10T05:17:28.337Z,40.88
2023-05-10T05:18:28.311Z,42.11
2023-05-10T05:19:28.325Z,42.95
2023-05-10T05:20:28.291Z,41.41
2023-05-10T05:21:28.294Z,41.63
2023-05-10T05:22:28.274Z,41.75
2023-05-10T05:23:28.314Z,41.60
2023-05-10T05:24:28.260Z,42.27
2023-05-10T05:25:28.278Z,42.10
2023-05-10T05:26:28.331Z,41.33
2023-05-10T05:27:28.350Z,42.65
2023-05-10T05:28:28.456Z,43.75
2023-05-10T05:29:28.470Z,46.63
2023-05-10T05:30:28.544Z,46.82
2023-05-10T05:31:28.608Z,46.02
2023-05-10T05:32:28.700Z,47.27
2023-05-10T05:33:28.703Z,51.67
2023-05-10T05:34:29.156Z,56.83
2023-05-10T05:35:28.829Z,66.69
2023-05-10T05:36:28.894Z,83.02
2023-05-10T05:37:28.953Z,88.03
2023-05-10T05:38:29.137Z,105.71
2023-05-10T05:39:29.029Z,121.04
2023-05-10T05:40:29.124Z,148.07
2023-05-10T05:41:29.166Z,189.38
2023-05-10T05:42:29.261Z,181.97
2023-05-10T05:43:29.630Z,224.96
2023-05-10T05:44:29.629Z,218.23
2023-05-10T05:45:29.556Z,224.53
2023-05-10T05:46:36.469Z,280.28
2023-05-10T05:47:29.440Z,267.02
2023-05-10T05:48:29.396Z,280.83
2023-05-10T05:49:29.424Z,281.49
2023-05-10T05:50:29.418Z,256.19
2023-05-10T05:51:29.380Z,238.72
2023-05-10T05:52:29.394Z,282.70
2023-05-10T05:53:29.404Z,250.70
2023-05-10T05:54:29.373Z,222.85
2023-05-10T05:55:29.332Z,265.64
2023-05-10T05:56:29.348Z,239.65
2023-05-10T05:57:29.456Z,253.78
2023-05-10T05:58:29.326Z,321.87
2023-05-10T05:59:29.666Z,237.58
2023-05-10T06:00:29.357Z,183.29
2023-05-10T06:01:29.333Z,168.08
2023-05-10T06:02:29.321Z,159.00
2023-05-10T06:03:29.394Z,135.56
2023-05-10T06:04:29.793Z,134.34
2023-05-10T06:05:29.324Z,130.07
2023-05-10T06:06:29.277Z,120.50
2023-05-10T06:07:29.287Z,108.34
2023-05-10T06:08:29.283Z,98.22
2023-05-10T06:09:29.691Z,91.76
2023-05-10T06:10:29.268Z,88.97
2023-05-10T06:11:29.313Z,88.35
2023-05-10T06:12:29.366Z,86.21
2023-05-10T06:13:29.563Z,79.68
2023-05-10T06:14:29.493Z,81.59
2023-05-10T06:15:29.452Z,81.65
2023-05-10T06:16:29.506Z,85.90
2023-05-10T06:17:29.542Z,86.29
2023-05-10T06:18:29.467Z,87.29
2023-05-10T06:19:29.454Z,82.89
2023-05-10T06:20:29.454Z,82.06
2023-05-10T06:21:29.453Z,79.84
2023-05-10T06:22:30.198Z,82.69
2023-05-10T06:23:29.431Z,82.27
2023-05-10T06:24:29.737Z,81.60
2023-05-10T06:25:29.464Z,81.13
2023-05-10T06:26:29.448Z,80.46
2023-05-10T06:27:29.486Z,73.24
2023-05-10T06:28:29.466Z,68.43
2023-05-10T06:29:29.487Z,70.13
2023-05-10T06:30:30.148Z,74.95
2023-05-10T06:31:29.528Z,77.93
2023-05-10T06:32:29.551Z,76.99
2023-05-10T06:33:29.533Z,77.70
2023-05-10T06:34:29.557Z,73.24
2023-05-10T06:35:29.556Z,75.65
2023-05-10T06:36:29.534Z,73.80
2023-05-10T06:37:29.575Z,73.04
2023-05-10T06:38:29.661Z,72.39
2023-05-10T06:39:29.579Z,72.67
2023-05-10T06:40:29.587Z,65.65
2023-05-10T06:41:29.615Z,65.59
2023-05-10T06:42:29.618Z,68.13
2023-05-10T06:43:29.737Z,67.73
2023-05-10T06:44:29.626Z,67.29
2023-05-10T06:45:29.661Z,65.79
2023-05-10T06:46:29.737Z,66.06
2023-05-10T06:47:29.710Z,68.97
2023-05-10T06:48:29.710Z,67.93
2023-05-10T06:49:29.765Z,68.81
2023-05-10T06:50:29.747Z,65.09
2023-05-10T06:51:29.777Z,63.38
2023-05-10T06:52:29.758Z,60.80
2023-05-10T06:53:29.787Z,61.52
2023-05-10T06:54:29.819Z,62.45
2023-05-10T06:55:29.856Z,62.60
2023-05-10T06:56:29.862Z,62.34
2023-05-10T06:57:31.652Z,61.61
2023-05-10T06:58:29.939Z,64.32
2023-05-10T06:59:30.022Z,61.60
2023-05-10T07:00:30.342Z,60.15
2023-05-10T07:01:30.068Z,57.98
2023-05-10T07:02:30.141Z,58.00
2023-05-10T07:03:30.038Z,59.29
2023-05-10T07:04:30.119Z,57.15
2023-05-10T07:05:30.143Z,55.80
2023-05-10T07:06:33.923Z,49.48
2023-05-10T07:07:30.112Z,48.66
2023-05-10T07:08:30.087Z,47.18
2023-05-10T07:09:30.114Z,42.95
2023-05-10T07:10:30.074Z,41.64
2023-05-10T07:11:30.071Z,38.83
2023-05-10T07:12:30.117Z,35.04
2023-05-10T07:13:30.099Z,32.37
2023-05-10T07:14:30.099Z,32.54
2023-05-10T07:15:30.075Z,32.65
2023-05-10T07:16:30.095Z,26.57
2023-05-10T07:17:30.102Z,24.38
2023-05-10T07:18:30.078Z,21.98
2023-05-10T07:19:30.054Z,21.98
2023-05-10T07:20:30.217Z,23.54
2023-05-10T07:21:30.088Z,24.48
2023-05-10T07:22:30.027Z,24.28
2023-05-10T07:23:30.006Z,22.65
2023-05-10T07:24:30.001Z,21.13
2023-05-10T07:25:30.013Z,18.50
2023-05-10T07:26:30.033Z,17.39
2023-05-10T07:27:29.964Z,15.44
2023-05-10T07:28:29.992Z,13.71
2023-05-10T07:29:29.935Z,13.51
2023-05-10T07:30:29.990Z,13.82
2023-05-10T07:31:29.975Z,15.08
2023-05-10T07:32:30.047Z,15.13
2023-05-10T07:33:29.947Z,15.52
2023-05-10T07:34:29.939Z,14.46
2023-05-10T07:35:30.232Z,13.70
2023-05-10T07:36:29.968Z,12.53
2023-05-10T07:37:29.956Z,11.48
2023-05-10T07:38:29.917Z,10.87
2023-05-10T07:39:29.916Z,10.86
2023-05-10T07:40:29.957Z,11.14
2023-05-10T07:41:29.893Z,11.04
2023-05-10T07:42:29.876Z,11.22
2023-05-10T07:43:29.874Z,11.80
2023-05-10T07:44:29.868Z,12.67
2023-05-10T07:45:29.938Z,13.57
2023-05-10T07:46:29.906Z,12.78
2023-05-10T07:47:29.873Z,11.77
2023-05-10T07:48:29.832Z,11.08
2023-05-10T07:49:29.867Z,11.30
2023-05-10T07:50:30.220Z,12.07
2023-05-10T07:51:29.829Z,11.81
2023-05-10T07:52:29.849Z,11.03
2023-05-10T07:53:29.824Z,10.17
2023-05-10T07:54:29.851Z,9.48
2023-05-10T07:55:29.813Z,9.57
2023-05-10T07:56:29.797Z,9.72
2023-05-10T07:57:29.803Z,9.31
2023-05-10T07:58:29.768Z,9.29
2023-05-10T07:59:29.803Z,8.83
2023-05-10T08:00:30.234Z,8.58
2023-05-10T08:01:29.798Z,8.11
2023-05-10T08:02:29.941Z,7.72
2023-05-10T08:03:29.906Z,7.46
2023-05-10T08:04:29.952Z,7.98
2023-05-10T08:05:29.933Z,8.44
2023-05-10T08:06:29.963Z,9.55
2023-05-10T08:07:29.997Z,10.32
2023-05-10T08:08:30.063Z,9.92
2023-05-10T08:09:30.056Z,9.22
2023-05-10T08:10:30.134Z,8.48
2023-05-10T08:11:30.176Z,8.23
2023-05-10T08:12:30.176Z,8.12
2023-05-10T08:13:30.239Z,8.46
2023-05-10T08:14:30.309Z,9.03
2023-05-10T08:15:30.336Z,9.02
2023-05-10T08:16:30.402Z,9.20
2023-05-10T08:17:30.491Z,9.65
2023-05-10T08:18:30.528Z,10.52
2023-05-10T08:19:30.462Z,10.81
2023-05-10T08:20:30.517Z,11.57
2023-05-10T08:21:30.659Z,11.64
2023-05-10T08:22:30.619Z,12.23
2023-05-10T08:23:30.657Z,12.46
2023-05-10T08:24:30.721Z,12.80
2023-05-10T08:25:31.331Z,12.26
2023-05-10T08:26:30.798Z,12.99
2023-05-10T08:27:30.843Z,14.51
2023-05-10T08:28:30.880Z,23.85
2023-05-10T08:29:38.588Z,48.04
2023-05-10T08:30:32.251Z,49.90
2023-05-10T08:31:30.901Z,61.32
2023-05-10T08:32:30.959Z,80.43
2023-05-10T08:33:30.886Z,102.71
2023-05-10T08:34:32.297Z,178.42
2023-05-10T08:35:31.211Z,201.60
2023-05-10T08:36:30.900Z,446.96
2023-05-10T08:37:30.879Z,361.37
2023-05-10T08:38:30.871Z,286.65
2023-05-10T08:39:31.030Z,247.40
2023-05-10T08:40:30.860Z,186.81
2023-05-10T08:41:30.854Z,100.42
2023-05-10T08:42:30.852Z,85.62
2023-05-10T08:43:31.045Z,63.85
2023-05-10T08:44:30.814Z,75.49
2023-05-10T08:45:30.805Z,99.58
2023-05-10T08:46:30.806Z,86.97
2023-05-10T08:47:30.840Z,92.27
2023-05-10T08:48:30.788Z,101.52
2023-05-10T08:49:30.779Z,109.06
2023-05-10T08:50:31.227Z,107.14
2023-05-10T08:51:30.754Z,111.91
2023-05-10T08:52:30.760Z,77.03
2023-05-10T08:53:30.777Z,54.28
2023-05-10T08:54:30.821Z,52.24
2023-05-10T08:55:30.832Z,64.40
2023-05-10T08:56:30.795Z,59.37
2023-05-10T08:57:30.841Z,52.59
2023-05-10T08:58:30.858Z,50.85
2023-05-10T08:59:30.852Z,48.90
2023-05-10T09:00:30.926Z,43.62
2023-05-10T09:01:30.914Z,44.99
2023-05-10T09:02:30.891Z,40.52
2023-05-10T09:03:30.876Z,41.14
2023-05-10T09:04:31.849Z,43.52
2023-05-10T09:05:31.340Z,47.14
2023-05-10T09:06:30.865Z,56.24
2023-05-10T09:07:30.876Z,74.03
2023-05-10T09:08:30.867Z,85.56
2023-05-10T09:09:30.853Z,110.11
2023-05-10T09:10:30.934Z,122.73
2023-05-10T09:11:30.997Z,137.77
2023-05-10T09:12:31.068Z,141.07
2023-05-10T09:13:31.128Z,143.63
2023-05-10T09:14:31.175Z,147.82
2023-05-10T09:15:31.234Z,147.16
2023-05-10T09:16:31.303Z,136.86
2023-05-10T09:17:31.382Z,141.92
2023-05-10T09:18:31.424Z,135.50
2023-05-10T09:19:31.374Z,130.26
2023-05-10T09:20:31.792Z,131.38
2023-05-10T09:21:31.481Z,119.89
2023-05-10T09:22:31.531Z,115.37
2023-05-10T09:23:31.539Z,105.09
2023-05-10T09:24:31.558Z,107.64
2023-05-10T09:25:31.626Z,112.27
2023-05-10T09:26:32.228Z,116.82
2023-05-10T09:27:31.666Z,104.10
2023-05-10T09:28:31.687Z,99.34
2023-05-10T09:29:31.678Z,91.60
2023-05-10T09:30:31.745Z,92.33
2023-05-10T09:31:32.260Z,87.73
2023-05-10T09:32:31.786Z,83.82
2023-05-10T09:33:31.820Z,88.68
2023-05-10T09:34:31.821Z,78.78
2023-05-10T09:35:31.847Z,79.22
2023-05-10T09:36:31.832Z,71.90
2023-05-10T09:37:31.836Z,73.37
2023-05-10T09:38:31.906Z,72.61
2023-05-10T09:39:31.917Z,70.83
2023-05-10T09:40:32.266Z,75.15
2023-05-10T09:41:31.915Z,89.64
2023-05-10T09:42:31.926Z,237.18
2023-05-10T09:43:31.970Z,132.08
2023-05-10T09:44:32.007Z,103.28
2023-05-10T09:45:31.997Z,98.13
2023-05-10T09:46:32.100Z,86.72
2023-05-10T09:47:32.090Z,71.65
2023-05-10T09:48:32.076Z,61.50
2023-05-10T09:49:32.070Z,58.82
2023-05-10T09:50:32.197Z,58.34
2023-05-10T09:51:32.091Z,48.88
2023-05-10T09:52:32.168Z,46.91
2023-05-10T09:53:32.187Z,43.93
2023-05-10T09:54:32.248Z,41.25
2023-05-10T09:55:32.321Z,40.04
2023-05-10T09:56:32.738Z,40.29
2023-05-10T09:57:34.647Z,39.29
2023-05-10T09:58:32.302Z,37.00
2023-05-10T09:59:32.321Z,36.59
2023-05-10T10:00:32.264Z,35.26
2023-05-10T10:01:32.278Z,32.84
2023-05-10T10:02:32.285Z,32.49
2023-05-10T10:03:32.222Z,33.54
2023-05-10T10:04:32.279Z,32.54
2023-05-10T10:05:32.260Z,32.29
2023-05-10T10:06:32.223Z,31.70
2023-05-10T10:07:32.278Z,29.33
2023-05-10T10:08:32.228Z,30.78
2023-05-10T10:09:32.221Z,30.29
2023-05-10T10:10:32.225Z,26.69
2023-05-10T10:11:32.345Z,28.52
2023-05-10T10:12:32.219Z,25.79
2023-05-10T10:13:32.200Z,25.89
2023-05-10T10:14:32.190Z,26.18
2023-05-10T10:15:32.221Z,25.39
2023-05-10T10:17:32.192Z,22.41
2023-05-10T10:18:32.244Z,18.79
2023-05-10T10:19:32.169Z,17.90
2023-05-10T10:20:32.120Z,15.53
2023-05-10T10:21:32.251Z,11.85
2023-05-10T10:22:32.100Z,10.28
2023-05-10T10:23:32.117Z,9.05
2023-05-10T10:24:32.136Z,9.07
2023-05-10T10:25:32.133Z,9.92
2023-05-10T10:26:32.270Z,11.64
2023-05-10T10:27:32.114Z,12.02
2023-05-10T10:28:32.079Z,10.79
2023-05-10T10:29:32.076Z,9.26
2023-05-10T10:30:32.060Z,8.04
2023-05-10T10:31:32.151Z,6.08
2023-05-10T10:32:32.106Z,4.13
2023-05-10T10:33:32.184Z,3.36
2023-05-10T10:34:32.095Z,4.61
2023-05-10T10:35:32.047Z,5.48
2023-05-10T10:36:32.278Z,5.67
2023-05-10T10:37:32.017Z,4.88
2023-05-10T10:38:31.999Z,4.33
2023-05-10T10:39:32.007Z,4.32
2023-05-10T10:40:34.598Z,4.10
2023-05-10T10:41:32.288Z,4.39
2023-05-10T10:42:31.996Z,5.48
2023-05-10T10:43:32.008Z,6.17
2023-05-10T10:44:31.997Z,6.17
2023-05-10T10:45:32.041Z,6.09
2023-05-10T10:46:31.992Z,5.88
2023-05-10T10:47:32.099Z,5.96
2023-05-10T10:48:32.035Z,5.67
2023-05-10T10:49:31.978Z,5.39
2023-05-10T10:50:32.043Z,5.84
2023-05-10T10:51:32.040Z,5.82
2023-05-10T10:52:32.003Z,5.51
2023-05-10T10:53:32.110Z,5.53
2023-05-10T10:54:31.928Z,5.33
2023-05-10T10:55:31.925Z,6.83
2023-05-10T10:56:31.935Z,11.07
2023-05-10T10:57:32.275Z,14.26
2023-05-10T10:58:31.876Z,12.86
2023-05-10T10:59:31.912Z,13.25
2023-05-10T11:00:32.066Z,11.40
2023-05-10T11:01:31.923Z,9.21
2023-05-10T11:02:31.905Z,8.12
2023-05-10T11:03:31.826Z,5.21
2023-05-10T11:04:31.944Z,3.97
2023-05-10T11:05:31.816Z,3.87
2023-05-10T11:06:31.822Z,4.23
2023-05-10T11:07:32.817Z,4.80
2023-05-10T11:08:31.811Z,4.01
2023-05-10T11:09:31.810Z,3.59
2023-05-10T11:10:31.771Z,3.64
2023-05-10T11:11:31.790Z,3.64
2023-05-10T11:12:31.765Z,3.78
2023-05-10T11:13:31.780Z,4.00
2023-05-10T11:14:31.777Z,4.05
2023-05-10T11:15:31.767Z,4.26
2023-05-10T11:16:32.047Z,4.36
2023-05-10T11:17:31.802Z,4.46
2023-05-10T11:18:31.752Z,4.34
2023-05-10T11:19:31.739Z,4.25
2023-05-10T11:20:31.736Z,4.62
2023-05-10T11:21:31.761Z,9.60
2023-05-10T11:22:31.814Z,11.61
2023-05-10T11:23:31.759Z,13.71
2023-05-10T11:24:31.826Z,17.36
2023-05-10T11:25:31.816Z,17.00
2023-05-10T11:26:31.853Z,21.35
2023-05-10T11:27:32.292Z,25.52
2023-05-10T11:28:31.885Z,27.11
2023-05-10T11:29:31.899Z,29.70
2023-05-10T11:30:31.922Z,35.19
2023-05-10T11:31:31.988Z,36.37
2023-05-10T11:32:32.310Z,35.36
2023-05-10T11:33:31.918Z,38.14
2023-05-10T11:34:31.941Z,39.32
2023-05-10T11:35:31.906Z,41.32
2023-05-10T11:36:31.893Z,42.96
2023-05-10T11:37:32.454Z,43.74
2023-05-10T11:38:32.184Z,42.09
2023-05-10T11:39:31.917Z,40.58
2023-05-10T11:40:31.933Z,38.87
2023-05-10T11:41:32.832Z,34.04
2023-05-10T11:42:31.935Z,31.49
2023-05-10T11:43:31.938Z,27.99
2023-05-10T11:44:31.942Z,27.87
2023-05-10T11:45:31.936Z,29.23
2023-05-10T11:46:31.945Z,27.33
2023-05-10T11:47:31.935Z,25.47
2023-05-10T11:48:31.913Z,22.83
2023-05-10T11:49:31.901Z,20.53
2023-05-10T11:50:31.945Z,18.23
2023-05-10T11:51:31.960Z,18.38
2023-05-10T11:52:31.934Z,18.49
2023-05-10T11:53:31.979Z,17.15
2023-05-10T11:54:31.938Z,14.70
2023-05-10T11:55:31.947Z,14.34
2023-05-10T11:56:32.011Z,14.57
2023-05-10T11:57:32.172Z,13.68
2023-05-10T11:58:31.975Z,12.77
2023-05-10T11:59:32.063Z,11.36
2023-05-10T12:00:32.016Z,10.96
2023-05-10T12:01:32.040Z,10.69
2023-05-10T12:02:32.194Z,10.52
2023-05-10T12:03:32.298Z,11.38
2023-05-10T12:04:32.098Z,11.65
2023-05-10T12:05:32.063Z,11.24
2023-05-10T12:06:32.245Z,11.10
2023-05-10T12:07:32.100Z,11.24
2023-05-10T12:08:32.108Z,11.71
2023-05-10T12:09:43.132Z,12.55
2023-05-10T12:10:33.103Z,12.58
2023-05-10T12:11:32.095Z,12.83
2023-05-10T12:12:32.096Z,12.92
2023-05-10T12:13:32.096Z,14.15
2023-05-10T12:14:32.098Z,15.06
2023-05-10T12:15:32.102Z,15.32
2023-05-10T12:16:32.137Z,16.25
2023-05-10T12:17:32.084Z,14.84
2023-05-10T12:18:32.067Z,14.72
2023-05-10T12:19:32.021Z,15.31
2023-05-10T12:20:32.037Z,14.67
2023-05-10T12:21:32.034Z,14.46
2023-05-10T12:22:32.032Z,14.96
2023-05-10T12:23:32.028Z,13.87
2023-05-10T12:24:32.026Z,14.13
2023-05-10T12:25:31.994Z,14.19
2023-05-10T12:26:31.990Z,14.32
2023-05-10T12:27:31.990Z,14.18
2023-05-10T12:28:31.968Z,14.54
2023-05-10T12:29:32.024Z,13.49
2023-05-10T12:30:31.960Z,12.19
2023-05-10T12:31:31.959Z,12.76
2023-05-10T12:32:31.980Z,12.52
2023-05-10T12:33:31.958Z,13.45
2023-05-10T12:34:31.967Z,13.59
2023-05-10T12:35:31.927Z,14.18
2023-05-10T12:36:31.915Z,13.16
2023-05-10T12:37:31.934Z,11.08
2023-05-10T12:38:32.044Z,10.34
2023-05-10T12:39:31.889Z,10.67
2023-05-10T12:40:31.910Z,10.70
2023-05-10T12:41:31.905Z,11.56
2023-05-10T12:42:31.885Z,12.16
2023-05-10T12:43:31.921Z,14.20
2023-05-10T12:44:31.885Z,16.38
2023-05-10T12:45:31.918Z,17.59
2023-05-10T12:46:31.923Z,20.24
2023-05-10T12:47:31.840Z,19.96
2023-05-10T12:48:31.854Z,29.28